Time;durP1;ratioP1;P1;durP2;ratioP2;P2;SDS_P1;SDS_P2;PMS_P1;PMS_P2;Temp;Humidity;BMP_temperature;BMP_pressure;BME280_temperature;BME280_humidity;BME280_pressure;Samples;Min_cycle;Max_cycle;Signal;HPM_P1;HPM_P2
2023/02/21 02:14:28;;;;;;;8.75;4.78;;;4.90;99.90;;;;;;5044085;28;20285;-72
2023/02/21 02:17:26;;;;;;;11.27;5.45;;;4.90;99.90;;;;;;5052058;28;20237;-72
2023/02/21 02:20:48;;;;;;;8.10;4.82;;;4.80;99.90;;;;;;5046566;28;20676;-72
2023/02/21 02:23:59;;;;;;;11.00;5.72;;;4.90;99.90;;;;;;5047004;28;20291;-72
2023/02/21 02:27:14;;;;;;;12.93;5.20;;;4.90;99.90;;;;;;5043557;28;20210;-72
2023/02/21 02:30:35;;;;;;;8.20;4.55;;;4.80;99.90;;;;;;5043858;28;20569;-72
2023/02/21 02:33:55;;;;;;;9.60;4.10;;;4.60;99.90;;;;;;5047842;28;20208;-72
2023/02/21 02:36:45;;;;;;;5.32;3.83;;;4.70;99.90;;;;;;5048550;28;20212;-72
2023/02/21 02:39:41;;;;;;;11.03;4.40;;;4.70;99.90;;;;;;5035835;28;20558;-72
2023/02/21 02:42:46;;;;;;;13.00;4.93;;;4.70;99.90;;;;;;5046043;28;20459;-72
2023/02/21 02:45:37;;;;;;;5.53;4.50;;;4.70;99.90;;;;;;5048076;28;20296;-72
2023/02/21 02:48:26;;;;;;;10.73;4.65;;;4.60;99.90;;;;;;5051452;28;20487;-73
2023/02/21 02:51:15;;;;;;;5.60;4.05;;;4.60;99.90;;;;;;5048945;28;20279;-72
2023/02/21 02:54:02;;;;;;;7.00;4.30;;;4.60;99.90;;;;;;5051890;28;20208;-72
2023/02/21 02:56:49;;;;;;;8.20;4.40;;;4.70;99.90;;;;;;5052255;28;20220;-72
2023/02/21 02:59:35;;;;;;;6.90;4.47;;;4.70;99.90;;;;;;5046179;28;20323;-72
2023/02/21 03:02:37;;;;;;;7.30;4.25;;;4.80;99.90;;;;;;5052693;28;20205;-72
2023/02/21 03:05:43;;;;;;;5.83;4.43;;;4.80;99.90;;;;;;5044669;28;20332;-72
2023/02/21 03:08:41;;;;;;;7.95;4.38;;;4.90;99.90;;;;;;5046902;28;20821;-72
2023/02/21 03:11:29;;;;;;;10.88;4.65;;;4.90;99.90;;;;;;5049798;28;20563;-72
2023/02/21 03:14:17;;;;;;;9.50;4.80;;;4.80;99.90;;;;;;5035513;28;20292;-72
2023/02/21 03:17:09;;;;;;;8.57;4.97;;;4.60;99.90;;;;;;5045638;28;20228;-72
2023/02/21 03:19:57;;;;;;;9.05;4.65;;;4.60;99.90;;;;;;5043866;28;20275;-72
2023/02/21 03:22:45;;;;;;;13.05;5.03;;;4.60;99.90;;;;;;5046103;28;20196;-72
2023/02/21 03:25:33;;;;;;;9.20;4.15;;;4.60;99.90;;;;;;5047522;28;20563;-72
2023/02/21 03:28:21;;;;;;;9.95;4.80;;;4.60;99.90;;;;;;5040537;28;20236;-72
2023/02/21 03:31:09;;;;;;;6.38;4.03;;;4.60;99.90;;;;;;5050143;28;20308;-72
2023/02/21 03:33:54;;;;;;;10.07;5.65;;;4.50;99.90;;;;;;5051633;28;20354;-72
2023/02/21 03:36:40;;;;;;;9.85;5.65;;;4.50;99.90;;;;;;5045174;28;20201;-72
2023/02/21 03:39:26;;;;;;;9.95;5.20;;;4.50;99.90;;;;;;5039487;28;20665;-72
2023/02/21 03:42:11;;;;;;;6.47;4.13;;;4.40;99.90;;;;;;5051257;28;20327;-72
2023/02/21 03:44:58;;;;;;;7.22;4.75;;;4.40;99.90;;;;;;5037668;28;20225;-72
2023/02/21 03:47:44;;;;;;;7.63;4.68;;;4.40;99.90;;;;;;5042612;28;20236;-72
2023/02/21 03:50:30;;;;;;;7.47;4.97;;;4.40;99.90;;;;;;5039148;28;20189;-72
2023/02/21 03:53:15;;;;;;;9.88;4.47;;;4.40;99.90;;;;;;5061687;28;20201;-72
2023/02/21 03:56:01;;;;;;;8.98;4.10;;;4.40;99.90;;;;;;5055392;28;20247;-72
2023/02/21 03:58:46;;;;;;;8.00;4.55;;;4.50;99.90;;;;;;5044226;28;20229;-72
2023/02/21 04:01:33;;;;;;;8.05;4.47;;;4.50;99.90;;;;;;5053344;28;20205;-72
2023/02/21 04:04:19;;;;;;;9.88;4.03;;;4.50;99.90;;;;;;5052404;28;20277;-72
2023/02/21 04:07:05;;;;;;;6.72;4.05;;;4.50;99.90;;;;;;5045902;28;20216;-72
2023/02/21 04:09:50;;;;;;;10.43;5.30;;;4.50;99.90;;;;;;5049430;28;20209;-72
2023/02/21 04:12:36;;;;;;;6.10;4.10;;;4.50;99.90;;;;;;5052751;28;20891;-72
2023/02/21 04:15:22;;;;;;;10.55;5.03;;;4.50;99.90;;;;;;5045577;28;20244;-72
2023/02/21 04:18:09;;;;;;;6.30;5.00;;;4.30;99.90;;;;;;5051606;28;20583;-72
2023/02/21 04:20:55;;;;;;;6.40;4.50;;;4.30;99.90;;;;;;5043996;28;20343;-72
2023/02/21 04:23:40;;;;;;;13.73;5.05;;;4.20;99.90;;;;;;5050743;28;20279;-72
2023/02/21 04:26:28;;;;;;;7.78;4.75;;;4.20;99.90;;;;;;5047906;28;20343;-72
2023/02/21 04:29:14;;;;;;;6.75;4.72;;;4.30;99.90;;;;;;5045844;28;20307;-72
2023/02/21 04:32:01;;;;;;;12.32;4.60;;;4.30;99.90;;;;;;5047477;28;20356;-72
2023/02/21 04:34:48;;;;;;;9.13;4.70;;;4.30;99.90;;;;;;5051286;28;20223;-72
2023/02/21 04:37:34;;;;;;;7.07;4.72;;;4.30;99.90;;;;;;5042453;28;20581;-72
2023/02/21 04:40:19;;;;;;;5.30;4.05;;;4.20;99.90;;;;;;5048151;28;20201;-72
2023/02/21 04:43:05;;;;;;;9.68;4.40;;;4.10;99.90;;;;;;5051327;28;20205;-72
2023/02/21 04:45:51;;;;;;;8.02;4.78;;;4.10;99.90;;;;;;5046319;28;20221;-72
2023/02/21 04:48:36;;;;;;;5.82;5.20;;;4.00;99.90;;;;;;5036598;28;20262;-72
2023/02/21 04:51:25;;;;;;;15.43;5.60;;;3.80;99.90;;;;;;5042811;28;20256;-72
2023/02/21 04:54:11;;;;;;;8.30;5.45;;;3.70;99.90;;;;;;5040108;28;20197;-72
2023/02/21 04:56:56;;;;;;;11.05;5.55;;;3.70;99.90;;;;;;5050235;28;20359;-72
2023/02/21 04:59:42;;;;;;;7.53;5.07;;;3.80;99.90;;;;;;5048795;28;20331;-72
2023/02/21 05:02:28;;;;;;;8.13;5.15;;;3.80;99.90;;;;;;5045545;28;20561;-72
2023/02/21 05:05:14;;;;;;;6.95;5.18;;;3.80;99.90;;;;;;5052154;28;20213;-72
2023/02/21 05:08:01;;;;;;;9.68;4.88;;;3.80;99.90;;;;;;5043962;28;20348;-73
2023/02/21 05:10:46;;;;;;;8.00;6.13;;;3.80;99.90;;;;;;5050662;28;20675;-72
2023/02/21 05:13:32;;;;;;;9.73;5.18;;;3.70;99.90;;;;;;5047688;28;20327;-72
2023/02/21 05:16:19;;;;;;;6.55;4.82;;;3.80;99.90;;;;;;5042746;28;20194;-72
2023/02/21 05:19:05;;;;;;;7.28;4.78;;;3.80;99.90;;;;;;5052367;28;20225;-72
2023/02/21 05:21:51;;;;;;;8.80;5.38;;;3.90;99.90;;;;;;5046131;28;20627;-72
2023/02/21 05:24:42;;;;;;;8.48;4.93;;;3.90;99.90;;;;;;5045817;28;20239;-72
2023/02/21 05:27:28;;;;;;;8.98;4.45;;;3.90;99.90;;;;;;5041548;28;20217;-72
2023/02/21 05:30:17;;;;;;;8.27;5.03;;;4.00;99.90;;;;;;5047972;28;20209;-72
2023/02/21 05:33:02;;;;;;;16.17;5.95;;;3.90;99.90;;;;;;5044223;28;20260;-72
2023/02/21 05:35:48;;;;;;;6.50;4.65;;;3.80;99.90;;;;;;5052150;28;20197;-72
2023/02/21 05:38:45;;;;;;;12.05;5.03;;;3.80;99.90;;;;;;5048726;28;20342;-72
2023/02/21 05:41:32;;;;;;;10.85;4.82;;;3.70;99.90;;;;;;5052374;28;20203;-72
2023/02/21 05:44:18;;;;;;;5.97;4.93;;;3.60;99.90;;;;;;5042298;28;20231;-72
2023/02/21 05:47:05;;;;;;;13.68;5.57;;;3.50;99.90;;;;;;5035179;28;20229;-72
2023/02/21 05:49:51;;;;;;;10.30;6.70;;;3.50;99.90;;;;;;5044851;28;20572;-72
2023/02/21 05:52:37;;;;;;;13.27;10.00;;;3.40;99.90;;;;;;5046176;28;20235;-72
2023/02/21 05:55:22;;;;;;;12.02;6.80;;;3.40;99.90;;;;;;5041867;28;20197;-72
2023/02/21 05:58:10;;;;;;;12.25;5.65;;;3.40;99.90;;;;;;5042411;28;20290;-72
2023/02/21 06:00:55;;;;;;;6.32;4.72;;;3.40;99.90;;;;;;5044848;28;20205;-72
2023/02/21 06:03:41;;;;;;;7.40;4.97;;;3.40;99.90;;;;;;5046908;28;20776;-72
2023/02/21 06:06:27;;;;;;;10.32;6.03;;;3.40;99.90;;;;;;5043701;28;20248;-72
2023/02/21 06:09:13;;;;;;;11.85;6.82;;;3.30;99.90;;;;;;5042990;28;20197;-72
2023/02/21 06:11:58;;;;;;;9.40;6.30;;;3.30;99.90;;;;;;5044389;28;20228;-72
2023/02/21 06:14:46;;;;;;;15.13;6.03;;;3.30;99.90;;;;;;5048666;28;20685;-72
2023/02/21 06:17:31;;;;;;;9.95;6.03;;;3.40;99.90;;;;;;5041697;28;20270;-72
2023/02/21 06:20:17;;;;;;;9.32;5.15;;;3.50;99.90;;;;;;5040678;28;20205;-72
2023/02/21 06:23:03;;;;;;;7.00;5.47;;;3.50;99.90;;;;;;5051851;28;20204;-72
2023/02/21 06:25:48;;;;;;;8.63;6.00;;;3.60;99.90;;;;;;5045337;28;20225;-72
2023/02/21 06:28:34;;;;;;;11.82;5.80;;;3.60;99.90;;;;;;5044793;28;20228;-72
2023/02/21 06:31:22;;;;;;;10.88;5.50;;;3.70;99.90;;;;;;5045299;28;20209;-72
2023/02/21 06:34:08;;;;;;;9.25;5.85;;;3.60;99.90;;;;;;5044031;28;20252;-72
2023/02/21 06:36:54;;;;;;;8.23;5.47;;;3.60;99.90;;;;;;5048999;28;20229;-72
2023/02/21 06:39:39;;;;;;;9.05;5.53;;;3.60;99.90;;;;;;5047302;28;20205;-72
2023/02/21 06:42:25;;;;;;;9.85;5.13;;;3.50;99.90;;;;;;5041952;28;20205;-72
2023/02/21 06:45:10;;;;;;;8.65;5.20;;;3.40;99.90;;;;;;5040191;28;20247;-72
2023/02/21 06:47:57;;;;;;;12.15;5.35;;;3.30;99.90;;;;;;5069977;22;20241;-71
2023/02/21 06:50:43;;;;;;;7.10;5.32;;;3.30;99.90;;;;;;5022425;28;20729;-72
2023/02/21 06:53:29;;;;;;;6.63;5.40;;;3.30;99.90;;;;;;5026002;28;20240;-71
2023/02/21 06:56:15;;;;;;;7.65;5.57;;;3.30;99.90;;;;;;5022303;28;20206;-72
2023/02/21 06:59:00;;;;;;;7.45;5.28;;;3.40;99.90;;;;;;5019821;28;20222;-72
2023/02/21 07:01:46;;;;;;;10.43;5.90;;;3.50;99.90;;;;;;5023404;28;20202;-72
2023/02/21 07:04:33;;;;;;;8.32;5.10;;;3.60;99.90;;;;;;5022544;28;20201;-71
2023/02/21 07:07:19;;;;;;;6.70;5.32;;;3.70;99.90;;;;;;5018948;28;20222;-71
2023/02/21 07:10:05;;;;;;;12.68;5.82;;;3.70;99.90;;;;;;5025089;28;20340;-72
2023/02/21 07:12:51;;;;;;;11.65;5.60;;;3.70;99.90;;;;;;5023064;28;20603;-71
2023/02/21 07:15:36;;;;;;;9.07;6.13;;;3.80;99.90;;;;;;5013544;28;20205;-71
2023/02/21 07:18:22;;;;;;;11.70;5.93;;;3.90;99.90;;;;;;5023734;28;20266;-71
2023/02/21 07:21:09;;;;;;;12.73;5.90;;;4.00;99.90;;;;;;5019279;28;20297;-71
2023/02/21 07:23:55;;;;;;;10.82;5.70;;;4.10;99.90;;;;;;5018956;28;20256;-71
2023/02/21 07:26:41;;;;;;;12.20;6.68;;;4.00;99.90;;;;;;5023202;28;20241;-72
2023/02/21 07:29:27;;;;;;;6.60;4.97;;;4.10;99.90;;;;;;5030647;28;20308;-72
2023/02/21 07:32:13;;;;;;;9.43;5.32;;;4.20;99.90;;;;;;5024651;28;20654;-71
2023/02/21 07:34:58;;;;;;;7.93;5.40;;;4.20;99.90;;;;;;5017434;28;20591;-73
2023/02/21 07:37:45;;;;;;;10.23;5.50;;;4.30;99.90;;;;;;5028608;28;20222;-72
2023/02/21 07:40:31;;;;;;;25.27;6.60;;;4.40;99.90;;;;;;5020491;28;20449;-72
2023/02/21 07:43:17;;;;;;;10.95;6.32;;;4.50;99.90;;;;;;5022098;28;20801;-71
2023/02/21 07:46:03;;;;;;;8.57;5.45;;;4.60;99.90;;;;;;5012797;28;20225;-71
2023/02/21 07:48:48;;;;;;;12.27;6.35;;;4.70;99.90;;;;;;5019286;28;20226;-72
2023/02/21 07:51:34;;;;;;;9.90;6.28;;;4.80;99.90;;;;;;5021877;28;20678;-72
2023/02/21 07:54:22;;;;;;;13.25;7.00;;;4.80;99.90;;;;;;5020168;28;20211;-74
2023/02/21 07:57:07;;;;;;;12.73;7.22;;;4.90;99.90;;;;;;5026761;28;20206;-71
2023/02/21 07:59:53;;;;;;;9.93;7.68;;;4.90;99.90;;;;;;5023395;28;20202;-73
2023/02/21 08:02:39;;;;;;;13.30;6.93;;;5.00;99.90;;;;;;5028279;28;20197;-71
2023/02/21 08:05:24;;;;;;;9.93;6.60;;;5.00;99.90;;;;;;5019994;28;20209;-71
2023/02/21 08:08:11;;;;;;;9.15;7.20;;;5.10;99.90;;;;;;5025330;28;20225;-71
2023/02/21 08:10:58;;;;;;;12.88;7.88;;;5.20;99.90;;;;;;5021716;28;20218;-71
2023/02/21 08:13:43;;;;;;;15.90;8.80;;;5.30;99.90;;;;;;5021889;28;20201;-72
2023/02/21 08:16:29;;;;;;;14.68;8.27;;;5.40;99.90;;;;;;5019119;28;20444;-71
2023/02/21 08:19:15;;;;;;;16.17;8.10;;;5.40;99.90;;;;;;5022481;28;20764;-72
2023/02/21 08:22:01;;;;;;;12.48;8.27;;;5.50;99.90;;;;;;5021188;28;20445;-71
2023/02/21 08:24:48;;;;;;;12.25;9.15;;;5.60;99.90;;;;;;5021504;28;20209;-73
2023/02/21 08:27:38;;;;;;;13.77;9.40;;;5.80;99.90;;;;;;5025359;28;20222;-71
2023/02/21 08:30:24;;;;;;;12.20;8.87;;;6.00;99.90;;;;;;5020214;28;20709;-72
2023/02/21 08:33:09;;;;;;;17.60;10.93;;;6.10;99.90;;;;;;5020925;28;20416;-73
2023/02/21 08:35:55;;;;;;;20.30;9.83;;;6.20;99.90;;;;;;5019423;28;20452;-73
2023/02/21 08:38:40;;;;;;;18.03;11.10;;;6.30;99.90;;;;;;5021173;28;20465;-72
2023/02/21 08:41:26;;;;;;;17.10;9.93;;;6.40;99.90;;;;;;5025255;28;20446;-72
2023/02/21 08:44:16;;;;;;;18.07;11.30;;;6.60;99.90;;;;;;5020644;28;20543;-71
2023/02/21 08:47:01;;;;;;;16.80;10.60;;;6.80;99.90;;;;;;5016295;28;21210;-71
2023/02/21 08:49:48;;;;;;;16.00;10.30;;;7.00;99.90;;;;;;5018465;28;20817;-72
2023/02/21 08:52:34;;;;;;;26.88;12.10;;;7.20;99.90;;;;;;5021734;28;20918;-71
2023/02/21 08:55:20;;;;;;;19.53;10.97;;;7.30;99.90;;;;;;5015773;28;20324;-71
2023/02/21 08:58:06;;;;;;;13.30;9.20;;;7.50;99.90;;;;;;5015253;28;20754;-70
2023/02/21 09:00:55;;;;;;;18.67;10.47;;;7.60;99.90;;;;;;5019020;28;20685;-71
2023/02/21 09:03:40;;;;;;;16.47;10.90;;;7.60;99.90;;;;;;5022609;28;20465;-71
2023/02/21 09:06:26;;;;;;;21.27;10.70;;;7.70;99.90;;;;;;5012495;28;20964;-70
2023/02/21 09:09:12;;;;;;;24.90;10.67;;;7.90;99.90;;;;;;5022635;28;20488;-71
2023/02/21 09:11:57;;;;;;;12.80;9.70;;;8.10;99.90;;;;;;5017380;28;20488;-71
2023/02/21 09:14:43;;;;;;;23.00;10.10;;;8.30;99.90;;;;;;5010097;28;20457;-73
2023/02/21 09:17:32;;;;;;;17.10;11.13;;;8.50;99.90;;;;;;5020721;28;20453;-70
2023/02/21 09:20:22;;;;;;;18.97;10.30;;;8.70;99.90;;;;;;5022133;28;20454;-71
2023/02/21 09:23:08;;;;;;;16.50;10.53;;;8.90;99.90;;;;;;5017818;28;20533;-72
2023/02/21 09:25:54;;;;;;;14.23;9.43;;;9.10;99.90;;;;;;5017818;28;20423;-71
2023/02/21 09:28:42;;;;;;;17.57;11.37;;;9.30;99.90;;;;;;5015041;28;20481;-71
2023/02/21 09:31:28;;;;;;;23.20;11.33;;;9.50;99.90;;;;;;5018449;28;20445;-71
2023/02/21 09:34:15;;;;;;;16.77;11.20;;;9.70;99.90;;;;;;5016996;28;21003;-71
2023/02/21 09:37:05;;;;;;;19.80;12.17;;;9.90;99.90;;;;;;5021126;28;20964;-71
2023/02/21 09:39:51;;;;;;;17.70;10.90;;;10.00;99.90;;;;;;5019691;28;20441;-71
2023/02/21 09:42:36;;;;;;;17.97;13.10;;;10.30;99.90;;;;;;5021688;28;20447;-72
2023/02/21 09:45:23;;;;;;;23.00;13.30;;;10.40;99.90;;;;;;5018865;28;20448;-71
2023/02/21 09:48:13;;;;;;;18.47;12.27;;;10.60;99.90;;;;;;5029969;28;20475;-71
2023/02/21 09:51:04;;;;;;;21.03;12.67;;;10.80;99.90;;;;;;5025107;28;20423;-72
2023/02/21 09:53:52;;;;;;;19.10;13.20;;;11.10;99.90;;;;;;5022631;28;20451;-72
2023/02/21 09:56:40;;;;;;;21.03;11.77;;;11.30;99.90;;;;;;5024802;28;20540;-72
2023/02/21 09:59:26;;;;;;;24.83;11.80;;;11.50;99.90;;;;;;5023044;28;20526;-72
2023/02/21 10:02:34;;;;;;;16.60;11.43;;;11.60;99.90;;;;;;5029987;28;20428;-72
2023/02/21 10:05:28;;;;;;;15.20;10.43;;;11.80;99.90;;;;;;5024577;28;20448;-73
2023/02/21 10:08:24;;;;;;;14.30;10.70;;;12.10;99.90;;;;;;5026862;28;20463;-75
2023/02/21 10:11:27;;;;;;;21.93;13.40;;;12.20;99.90;;;;;;5031705;28;20816;-73
2023/02/21 10:14:23;;;;;;;16.83;11.20;;;12.40;99.90;;;;;;5023852;28;20874;-72
2023/02/21 10:17:17;;;;;;;15.13;10.63;;;12.60;99.90;;;;;;5026654;28;20543;-72
2023/02/21 10:20:10;;;;;;;12.20;9.93;;;12.90;99.90;;;;;;5030884;28;20515;-73
2023/02/21 10:22:57;;;;;;;18.00;9.43;;;13.00;99.90;;;;;;5024024;28;20406;-73
2023/02/21 10:25:45;;;;;;;13.37;9.23;;;13.20;99.90;;;;;;5028076;28;20411;-72
2023/02/21 10:28:31;;;;;;;18.43;10.57;;;13.40;99.90;;;;;;5030523;28;20451;-71
2023/02/21 10:31:24;;;;;;;13.60;9.97;;;13.70;97.90;;;;;;5015459;28;20434;-71
2023/02/21 10:34:22;;;;;;;18.97;10.47;;;13.90;97.20;;;;;;5016088;28;20487;-72
2023/02/21 10:37:27;;;;;;;28.37;9.53;;;14.10;93.00;;;;;;5026500;28;20448;-71
2023/02/21 10:40:27;;;;;;;14.10;9.50;;;14.40;92.60;;;;;;5029947;28;20496;-72
2023/02/21 10:43:18;;;;;;;14.70;9.60;;;14.60;83.70;;;;;;5021000;28;20450;-73
2023/02/21 10:46:10;;;;;;;15.23;9.20;;;14.70;79.60;;;;;;5024185;28;20422;-71
2023/02/21 10:49:13;;;;;;;12.80;8.93;;;14.90;78.60;;;;;;5025102;28;20608;-74
2023/02/21 10:52:12;;;;;;;15.77;8.53;;;15.20;78.20;;;;;;5021174;28;21133;-73
2023/02/21 10:55:03;;;;;;;12.10;8.87;;;15.40;80.70;;;;;;5018742;28;20578;-71
2023/02/21 10:57:54;;;;;;;15.50;8.67;;;15.60;72.40;;;;;;5018362;28;20473;-72
2023/02/21 11:00:47;;;;;;;15.67;9.37;;;15.70;69.30;;;;;;5020275;28;20419;-71
2023/02/21 11:03:33;;;;;;;11.50;7.23;;;15.90;66.90;;;;;;5027796;28;20549;-72
2023/02/21 11:06:31;;;;;;;13.80;8.53;;;16.20;67.20;;;;;;5020372;28;20442;-72
2023/02/21 11:09:36;;;;;;;12.73;8.37;;;16.30;63.70;;;;;;5027923;28;20443;-73
2023/02/21 11:12:24;;;;;;;13.00;8.97;;;16.50;61.50;;;;;;5024122;28;20539;-76
2023/02/21 11:15:19;;;;;;;11.43;7.67;;;16.60;59.10;;;;;;5024719;28;20490;-73
2023/02/21 11:18:17;;;;;;;14.10;8.20;;;16.50;59.50;;;;;;5023368;28;20438;-74
2023/02/21 11:21:12;;;;;;;11.27;6.73;;;16.60;59.60;;;;;;5024053;28;20451;-73
2023/02/21 11:24:02;;;;;;;11.57;7.60;;;16.80;56.60;;;;;;5018298;28;20433;-74
2023/02/21 11:26:51;;;;;;;10.13;6.50;;;16.70;55.40;;;;;;5023119;28;20431;-76
2023/02/21 11:29:37;;;;;;;9.97;7.20;;;16.80;56.50;;;;;;5022501;28;20438;-74
2023/02/21 11:32:27;;;;;;;10.97;8.13;;;16.60;54.50;;;;;;5029163;28;20803;-74
2023/02/21 11:35:25;;;;;;;11.70;7.80;;;16.40;57.10;;;;;;5023003;28;20485;-73
2023/02/21 11:38:34;;;;;;;10.77;6.60;;;16.40;56.30;;;;;;5021705;28;20461;-73
2023/02/21 11:41:27;;;;;;;10.43;7.10;;;16.40;53.90;;;;;;5021450;28;20424;-75
2023/02/21 11:44:25;;;;;;;9.23;7.57;;;16.50;56.30;;;;;;5025276;28;20445;-73
2023/02/21 11:47:16;;;;;;;11.00;7.57;;;16.40;56.20;;;;;;5019596;28;20454;-73
2023/02/21 11:50:15;;;;;;;7.53;5.37;;;16.30;56.00;;;;;;5029828;28;20919;-73
2023/02/21 11:53:11;;;;;;;8.43;5.40;;;16.30;55.20;;;;;;5031449;28;20424;-74
2023/02/21 11:56:02;;;;;;;12.70;7.10;;;16.40;54.40;;;;;;5021340;28;20517;-75
2023/02/21 11:58:55;;;;;;;11.80;7.37;;;16.40;54.80;;;;;;5023580;28;20822;-74
2023/02/21 12:01:48;;;;;;;13.57;6.30;;;16.70;54.70;;;;;;5027842;28;20973;-74
2023/02/21 12:04:52;;;;;;;10.17;5.50;;;16.90;52.30;;;;;;5020586;28;20523;-74
2023/02/21 12:07:48;;;;;;;7.10;4.80;;;16.90;52.10;;;;;;5021148;28;20830;-74
2023/02/21 12:10:44;;;;;;;8.20;5.03;;;17.00;50.10;;;;;;5026199;28;20507;-74
2023/02/21 12:13:37;;;;;;;10.80;4.87;;;16.90;51.20;;;;;;5029946;28;20399;-74
2023/02/21 12:16:33;;;;;;;8.10;5.07;;;16.90;52.80;;;;;;5016375;28;20474;-73
2023/02/21 12:19:37;;;;;;;10.10;6.03;;;17.10;50.70;;;;;;5023494;28;20442;-74
2023/02/21 12:22:35;;;;;;;10.13;5.27;;;17.20;49.10;;;;;;5024746;28;21000;-74
2023/02/21 12:25:29;;;;;;;9.37;6.30;;;17.10;49.30;;;;;;5018004;28;20428;-73
2023/02/21 12:28:23;;;;;;;10.37;6.43;;;17.20;49.50;;;;;;5017755;28;20520;-73
2023/02/21 12:31:24;;;;;;;9.80;6.20;;;17.30;49.20;;;;;;5025530;28;20436;-73
2023/02/21 12:34:24;;;;;;;13.03;7.07;;;17.30;48.40;;;;;;5026649;28;20966;-73
2023/02/21 12:37:24;;;;;;;12.67;7.63;;;17.40;47.80;;;;;;5013729;28;20560;-73
2023/02/21 12:40:33;;;;;;;10.10;7.20;;;17.60;49.00;;;;;;5023920;28;20487;-73
2023/02/21 12:43:42;;;;;;;12.80;7.70;;;17.80;49.10;;;;;;5029071;28;20950;-73
2023/02/21 12:46:32;;;;;;;11.43;7.07;;;17.90;45.80;;;;;;5023992;28;20452;-74
2023/02/21 12:49:23;;;;;;;15.73;7.53;;;18.00;45.00;;;;;;5051910;22;20850;-72
2023/02/21 12:52:15;;;;;;;8.63;5.87;;;18.10;46.00;;;;;;5041930;28;20910;-72
2023/02/21 12:55:05;;;;;;;11.83;6.63;;;18.00;43.60;;;;;;5038910;28;20484;-72
2023/02/21 12:57:58;;;;;;;10.30;8.50;;;18.10;46.00;;;;;;5040820;28;20965;-72
2023/02/21 13:00:49;;;;;;;11.17;7.00;;;18.10;44.20;;;;;;5048595;28;20478;-73
2023/02/21 13:03:43;;;;;;;11.77;6.90;;;18.40;44.10;;;;;;5043041;28;20558;-72
2023/02/21 13:06:32;;;;;;;12.57;6.80;;;18.20;43.20;;;;;;5037103;28;20423;-72
2023/02/21 13:09:26;;;;;;;10.60;8.57;;;18.30;43.90;;;;;;5044495;28;20455;-72
2023/02/21 13:12:16;;;;;;;14.30;8.20;;;18.60;43.70;;;;;;5042608;28;20452;-72
2023/02/21 13:15:13;;;;;;;13.83;8.30;;;18.70;41.20;;;;;;5045013;28;20426;-72
2023/02/21 13:18:04;;;;;;;11.53;8.90;;;18.80;40.20;;;;;;5044913;28;20416;-72
2023/02/21 13:20:56;;;;;;;12.17;8.50;;;18.80;42.40;;;;;;5045756;28;20428;-72
2023/02/21 13:27:11;;;;;;;16.87;8.10;;;19.00;38.80;;;;;;5040461;28;20502;-72
2023/02/21 13:30:03;;;;;;;10.27;6.60;;;19.20;40.10;;;;;;5049576;28;20450;-72
2023/02/21 13:32:54;;;;;;;8.00;6.00;;;19.30;37.10;;;;;;5043572;28;20448;-72
2023/02/21 13:35:42;;;;;;;9.33;6.67;;;19.50;38.10;;;;;;5041786;28;20412;-72
2023/02/21 13:38:30;;;;;;;11.13;7.13;;;19.60;35.90;;;;;;5043821;28;20463;-72
2023/02/21 13:41:17;;;;;;;12.87;6.60;;;19.60;35.30;;;;;;5045473;28;20447;-72
2023/02/21 13:44:09;;;;;;;8.50;6.20;;;19.50;34.60;;;;;;5046702;28;20414;-72
2023/02/21 13:47:14;;;;;;;11.27;7.50;;;19.40;35.00;;;;;;5040494;28;20447;-72
2023/02/21 13:50:00;;;;;;;18.67;6.87;;;19.40;35.40;;;;;;5045648;28;20452;-72
2023/02/21 13:53:03;;;;;;;11.47;6.70;;;19.30;35.90;;;;;;5041935;28;20492;-72
2023/02/21 13:56:19;;;;;;;12.03;7.63;;;19.50;35.60;;;;;;5040854;28;20503;-72
2023/02/21 13:59:33;;;;;;;9.43;6.70;;;19.60;34.60;;;;;;5011469;28;20475;-72
2023/02/21 14:02:29;;;;;;;12.73;6.90;;;19.50;34.40;;;;;;5045380;28;20441;-72
2023/02/21 14:05:14;;;;;;;9.73;6.67;;;19.60;35.30;;;;;;5039248;28;20573;-72
2023/02/21 14:08:03;;;;;;;14.80;7.13;;;19.90;35.10;;;;;;5046072;28;20437;-71
2023/02/21 14:10:51;;;;;;;14.50;7.40;;;20.10;33.50;;;;;;5046621;28;20802;-71
2023/02/21 14:13:40;;;;;;;27.87;7.50;;;20.40;32.70;;;;;;5041572;28;20475;-72
2023/02/21 14:16:35;;;;;;;12.53;7.47;;;20.50;31.90;;;;;;5038654;28;20430;-72
2023/02/21 14:19:25;;;;;;;11.93;7.50;;;20.60;31.10;;;;;;5041649;28;20548;-72
2023/02/21 14:22:14;;;;;;;11.00;6.80;;;20.60;30.20;;;;;;5041400;28;20400;-72
2023/02/21 14:25:17;;;;;;;15.53;8.10;;;20.60;30.60;;;;;;5037041;28;20799;-72
2023/02/21 14:28:23;;;;;;;12.67;4.97;;;21.00;29.90;;;;;;5048032;28;20858;-72
2023/02/21 14:31:12;;;;;;;7.50;5.20;;;21.40;28.30;;;;;;5044914;28;20426;-72
2023/02/21 14:33:59;;;;;;;8.00;5.30;;;21.60;27.70;;;;;;5047715;28;20499;-72
2023/02/21 14:36:44;;;;;;;10.40;6.47;;;21.90;28.00;;;;;;5042239;28;20445;-73
2023/02/21 14:39:40;;;;;;;8.53;5.10;;;21.60;27.70;;;;;;5042216;28;20411;-72
2023/02/21 14:42:43;;;;;;;8.50;5.43;;;20.20;28.50;;;;;;5043886;28;20531;-72
2023/02/21 14:45:42;;;;;;;10.33;6.13;;;19.20;30.60;;;;;;5044994;28;20830;-72
2023/02/21 14:48:50;;;;;;;9.23;6.17;;;18.40;33.80;;;;;;5046840;28;20489;-72
2023/02/21 14:52:14;;;;;;;9.67;6.13;;;17.80;37.20;;;;;;5053113;28;20420;-72
2023/02/21 14:55:20;;;;;;;13.37;7.00;;;17.40;37.90;;;;;;5046793;28;20679;-72
2023/02/21 14:58:37;;;;;;;10.77;6.10;;;17.10;40.40;;;;;;5048531;28;20446;-72
2023/02/21 15:01:40;;;;;;;10.30;5.70;;;16.70;42.00;;;;;;5043457;28;20406;-72
2023/02/21 15:04:36;;;;;;;9.27;5.63;;;16.50;42.80;;;;;;5044041;28;20559;-72
2023/02/21 15:07:28;;;;;;;11.23;5.90;;;16.20;46.10;;;;;;5045787;28;20451;-72
2023/02/21 15:10:24;;;;;;;10.10;5.37;;;16.10;46.30;;;;;;5044185;28;20406;-72
2023/02/21 15:13:23;;;;;;;8.80;5.37;;;16.00;46.40;;;;;;5049054;28;20546;-72
2023/02/21 15:16:13;;;;;;;10.13;4.70;;;16.00;49.00;;;;;;5044520;28;20425;-72
2023/02/21 15:19:01;;;;;;;8.07;4.63;;;15.80;48.80;;;;;;5043296;28;20444;-72
2023/02/21 15:21:47;;;;;;;8.50;4.20;;;15.70;49.20;;;;;;5046075;28;20535;-72
2023/02/21 15:24:32;;;;;;;6.83;3.90;;;15.70;48.70;;;;;;5044364;28;21117;-72
2023/02/21 15:27:18;;;;;;;9.90;4.00;;;15.70;52.00;;;;;;5050188;28;20419;-72
2023/02/21 15:30:13;;;;;;;6.40;4.40;;;15.70;54.10;;;;;;5040910;28;20896;-72
2023/02/21 15:33:05;;;;;;;9.63;4.17;;;16.00;50.30;;;;;;5045737;28;20436;-72
2023/02/21 15:35:53;;;;;;;5.93;3.57;;;16.50;48.70;;;;;;5046273;28;20501;-73
2023/02/21 15:38:43;;;;;;;6.33;3.00;;;16.80;49.90;;;;;;5046415;28;20444;-72
2023/02/21 15:41:32;;;;;;;4.73;2.77;;;16.80;49.90;;;;;;5045957;28;20548;-73
2023/02/21 15:44:24;;;;;;;11.67;3.43;;;16.30;53.00;;;;;;5040759;28;20426;-72
2023/02/21 15:47:14;;;;;;;11.37;3.20;;;15.80;56.60;;;;;;5050648;28;20435;-72
2023/02/21 15:50:03;;;;;;;4.77;3.10;;;15.30;60.00;;;;;;5048410;28;20466;-72
2023/02/21 15:52:52;;;;;;;8.97;6.17;;;14.90;63.90;;;;;;5040775;28;20835;-72
2023/02/21 15:55:37;;;;;;;6.73;3.63;;;14.50;65.70;;;;;;5042032;28;20785;-72
2023/02/21 15:58:25;;;;;;;7.33;3.53;;;14.10;69.80;;;;;;5045176;28;20458;-72
2023/02/21 16:01:11;;;;;;;9.83;3.40;;;13.80;74.50;;;;;;5051520;28;20881;-72
2023/02/21 16:04:18;;;;;;;13.17;4.70;;;13.60;78.70;;;;;;5046631;28;20811;-72
2023/02/21 16:07:04;;;;;;;9.07;4.00;;;13.40;81.00;;;;;;5046252;28;20478;-72
2023/02/21 16:09:57;;;;;;;7.07;4.17;;;13.20;84.30;;;;;;5051222;28;20558;-72
2023/02/21 16:12:45;;;;;;;5.63;3.80;;;12.90;87.00;;;;;;5045848;28;20429;-72
2023/02/21 16:15:33;;;;;;;7.77;3.93;;;12.70;89.10;;;;;;5037033;28;20954;-72
2023/02/21 16:18:19;;;;;;;9.33;3.83;;;12.50;91.50;;;;;;5045469;28;20439;-72
2023/02/21 16:21:08;;;;;;;6.77;4.30;;;12.30;93.30;;;;;;5051869;28;20427;-72
2023/02/21 16:23:53;;;;;;;8.80;4.00;;;12.20;93.70;;;;;;5040486;28;20411;-71
2023/02/21 16:26:39;;;;;;;13.43;4.10;;;12.10;94.10;;;;;;5050496;28;20488;-71
2023/02/21 16:29:24;;;;;;;9.83;4.50;;;12.00;94.50;;;;;;5050356;28;20613;-71
2023/02/21 16:32:17;;;;;;;6.20;4.53;;;11.80;95.90;;;;;;5044126;28;20420;-71
2023/02/21 16:35:02;;;;;;;6.53;4.53;;;11.80;96.70;;;;;;5044239;28;20452;-71
2023/02/21 16:37:52;;;;;;;20.07;5.17;;;11.60;97.50;;;;;;5049924;28;20441;-71
2023/02/21 16:40:37;;;;;;;8.30;4.70;;;11.50;97.80;;;;;;5044234;28;20406;-71
2023/02/21 16:43:26;;;;;;;8.03;4.77;;;11.50;97.40;;;;;;5042462;28;21074;-71
2023/02/21 16:46:12;;;;;;;16.60;4.77;;;11.30;97.70;;;;;;5043769;28;20424;-71
2023/02/21 16:48:58;;;;;;;14.60;4.73;;;11.10;98.50;;;;;;5042431;28;20484;-71
2023/02/21 16:51:44;;;;;;;10.63;4.30;;;11.00;99.50;;;;;;5047285;28;20831;-71
2023/02/21 16:54:31;;;;;;;8.00;4.97;;;10.90;99.20;;;;;;5039019;28;20441;-71
2023/02/21 16:57:16;;;;;;;6.07;3.70;;;10.80;98.70;;;;;;5048763;28;20558;-71
2023/02/21 17:00:03;;;;;;;7.97;4.10;;;10.70;98.50;;;;;;5048553;28;20570;-71
2023/02/21 17:02:49;;;;;;;7.27;3.47;;;10.70;99.10;;;;;;5039096;28;20915;-71